Time;durP1;ratioP1;P1;durP2;ratioP2;P2;SDS_P1;SDS_P2;PMS_P1;PMS_P2;Temp;Humidity;BMP_temperature;BMP_pressure;BME280_temperature;BME280_humidity;BME280_pressure;Samples;Min_cycle;Max_cycle;Signal;HPM_P1;HPM_P2
2022/03/17 00:00:08;;;;;;;16.82;9.28;;;;;;;-2.75;59.00;102556.48;1754643;79;21053;-69
2022/03/17 00:02:37;;;;;;;17.35;9.35;;;;;;;-2.73;59.05;102556.73;1775457;80;21796;-70
2022/03/17 00:05:08;;;;;;;14.60;8.35;;;;;;;-2.72;59.07;102560.17;1774059;80;20954;-68
2022/03/17 00:07:38;;;;;;;14.93;8.15;;;;;;;-2.73;59.13;102565.88;1775659;80;21031;-69
2022/03/17 00:10:07;;;;;;;16.48;8.55;;;;;;;-2.71;59.19;102567.88;1774433;80;21062;-69
2022/03/17 00:12:36;;;;;;;15.63;9.30;;;;;;;-2.71;59.24;102560.52;1776395;80;21000;-68
2022/03/17 00:15:05;;;;;;;18.07;9.63;;;;;;;-2.71;59.23;102560.04;1762302;80;21224;-69
2022/03/17 00:17:32;;;;;;;16.07;8.60;;;;;;;-2.70;59.23;102557.80;1775404;80;20995;-68
2022/03/17 00:20:02;;;;;;;17.82;9.68;;;;;;;-2.69;59.31;102556.84;1774037;80;21082;-69
2022/03/17 00:22:31;;;;;;;16.32;8.88;;;;;;;-2.69;59.32;102562.07;1775574;80;20988;-69
2022/03/17 00:24:58;;;;;;;15.03;7.83;;;;;;;-2.70;59.37;102561.72;1767126;79;21645;-69
2022/03/17 00:27:25;;;;;;;15.85;8.43;;;;;;;-2.70;59.43;102563.03;1774953;80;21547;-69
2022/03/17 00:29:54;;;;;;;14.00;8.03;;;;;;;-2.68;59.50;102568.13;1775858;80;21054;-69
2022/03/17 00:32:23;;;;;;;13.95;6.78;;;;;;;-2.70;59.56;102566.09;1775415;80;20999;-69
2022/03/17 00:37:40;;;;;;;17.15;9.03;;;;;;;-2.72;59.59;102568.84;1754483;80;21080;-70
2022/03/17 00:40:10;;;;;;;15.88;9.33;;;;;;;-2.73;59.66;102576.34;1763116;80;21244;-70
2022/03/17 00:42:39;;;;;;;18.85;8.88;;;;;;;-2.77;59.75;102578.82;1766061;80;21070;-68
2022/03/17 00:45:10;;;;;;;14.15;7.65;;;;;;;-2.77;59.85;102574.07;1775564;80;21030;-68
2022/03/17 00:47:38;;;;;;;14.80;9.38;;;;;;;-2.80;59.93;102576.44;1775197;80;21031;-68
2022/03/17 00:50:07;;;;;;;18.40;8.48;;;;;;;-2.80;60.06;102574.31;1775499;80;21565;-69
2022/03/17 00:52:34;;;;;;;17.65;9.28;;;;;;;-2.80;60.23;102573.83;1780297;80;21204;-68
2022/03/17 00:55:05;;;;;;;18.15;9.35;;;;;;;-2.80;60.25;102577.75;1776243;80;21026;-67
2022/03/17 00:57:36;;;;;;;19.50;9.13;;;;;;;-2.80;60.29;102576.44;1776175;80;21693;-70
2022/03/17 01:00:07;;;;;;;16.27;8.65;;;;;;;-2.78;60.33;102577.17;1775336;80;21124;-69
2022/03/17 01:02:37;;;;;;;18.52;9.15;;;;;;;-2.75;60.33;102576.93;1775414;80;21173;-70
2022/03/17 01:05:06;;;;;;;17.35;8.63;;;;;;;-2.77;60.33;102574.90;1775244;80;21253;-69
2022/03/17 01:07:34;;;;;;;15.72;8.50;;;;;;;-2.77;60.36;102573.59;1775506;80;20991;-68
2022/03/17 01:10:02;;;;;;;14.45;7.95;;;;;;;-2.76;60.44;102569.19;1773317;80;21015;-69
2022/03/17 01:12:31;;;;;;;16.80;8.35;;;;;;;-2.77;60.45;102574.07;1768322;79;21010;-68
2022/03/17 01:15:00;;;;;;;14.05;7.83;;;;;;;-2.76;60.46;102571.80;1774118;79;20975;-68
2022/03/17 01:17:27;;;;;;;17.50;9.53;;;;;;;-2.78;60.46;102574.55;1766213;79;21345;-69
2022/03/17 01:19:55;;;;;;;15.80;8.30;;;;;;;-2.80;60.41;102572.52;1770285;79;21037;-69
2022/03/17 01:22:23;;;;;;;17.20;8.35;;;;;;;-2.79;60.42;102574.20;1774093;79;22254;-69
2022/03/17 01:24:54;;;;;;;16.27;8.58;;;;;;;-2.79;60.38;102574.20;1756336;80;21031;-68
2022/03/17 01:27:23;;;;;;;13.68;7.87;;;;;;;-2.78;60.37;102581.09;1774554;80;21168;-68
2022/03/17 01:29:51;;;;;;;14.23;8.93;;;;;;;-2.77;60.35;102577.52;1771968;80;21237;-68
2022/03/17 01:32:18;;;;;;;13.08;7.58;;;;;;;-2.79;60.31;102578.13;1779668;79;21027;-69
2022/03/17 01:34:47;;;;;;;13.83;8.18;;;;;;;-2.81;60.31;102576.09;1774807;80;21135;-69
2022/03/17 01:37:14;;;;;;;13.68;8.23;;;;;;;-2.81;60.32;102577.41;1754766;80;21089;-69
2022/03/17 01:39:42;;;;;;;13.62;7.40;;;;;;;-2.84;60.33;102576.33;1790814;79;21026;-69
2022/03/17 01:42:10;;;;;;;14.90;8.05;;;;;;;-2.87;60.34;102577.88;1774076;79;21246;-68
2022/03/17 01:44:39;;;;;;;13.25;7.42;;;;;;;-2.89;60.32;102580.62;1775532;80;21056;-68
2022/03/17 01:50:05;;;;;;;13.25;7.28;;;;;;;-2.92;60.34;102582.17;1754701;80;21002;-71
2022/03/17 01:52:33;;;;;;;11.00;6.58;;;;;;;-2.94;60.37;102578.00;1766300;80;21035;-70
2022/03/17 01:55:00;;;;;;;12.95;7.17;;;;;;;-2.96;60.33;102584.67;1758824;80;21639;-71
2022/03/17 01:57:27;;;;;;;14.73;7.70;;;;;;;-2.97;60.26;102588.69;1761913;79;21031;-71
2022/03/17 01:59:54;;;;;;;15.60;7.47;;;;;;;-2.99;60.19;102578.36;1774436;79;21296;-71
2022/03/17 02:02:24;;;;;;;11.95;6.65;;;;;;;-3.00;60.10;102581.08;1769310;79;21050;-71
2022/03/17 02:04:52;;;;;;;12.28;6.60;;;;;;;-3.02;60.04;102581.70;1771384;80;21015;-70
2022/03/17 02:07:20;;;;;;;13.53;6.97;;;;;;;-3.04;59.96;102588.33;1763388;80;21209;-69
2022/03/17 02:09:49;;;;;;;11.63;6.45;;;;;;;-3.04;59.86;102593.56;1768045;80;21074;-68
2022/03/17 02:15:09;;;;;;;11.63;6.30;;;;;;;-3.06;59.64;102594.14;1764736;80;20968;-68
2022/03/17 02:17:40;;;;;;;12.20;5.92;;;;;;;-3.05;59.50;102600.23;1772286;79;21066;-69
2022/03/17 02:20:13;;;;;;;12.33;6.67;;;;;;;-3.07;59.32;102604.25;1775702;79;21640;-69
2022/03/17 02:22:49;;;;;;;13.70;6.37;;;;;;;-3.08;59.24;102600.81;1781839;79;21038;-69
2022/03/17 02:25:34;;;;;;;11.22;5.83;;;;;;;-3.11;59.10;102602.83;1768417;80;21098;-70
2022/03/17 02:28:03;;;;;;;10.78;5.78;;;;;;;-3.13;58.95;102600.31;1757677;80;21502;-67
2022/03/17 02:30:31;;;;;;;9.58;5.47;;;;;;;-3.15;58.80;102608.77;1757236;80;21003;-68
2022/03/17 02:33:03;;;;;;;9.73;5.70;;;;;;;-3.18;58.67;102600.33;1758102;80;21211;-68
2022/03/17 02:35:32;;;;;;;8.50;5.25;;;;;;;-3.19;58.57;102612.56;1757043;80;21021;-68
2022/03/17 02:38:04;;;;;;;9.05;4.80;;;;;;;-3.21;58.44;102611.01;1762403;80;21593;-68
2022/03/17 02:40:34;;;;;;;8.65;4.75;;;;;;;-3.22;58.38;102610.66;1760405;80;21058;-68
2022/03/17 02:43:02;;;;;;;8.73;4.45;;;;;;;-3.24;58.28;102608.14;1762208;80;21144;-67
2022/03/17 02:45:29;;;;;;;7.42;4.37;;;;;;;-3.24;58.17;102606.02;1757708;80;21322;-67
2022/03/17 02:47:57;;;;;;;7.62;4.70;;;;;;;-3.27;58.11;102610.98;1761418;80;21046;-68
2022/03/17 02:50:24;;;;;;;7.97;4.83;;;;;;;-3.25;57.95;102609.59;1765495;79;22339;-67
2022/03/17 02:52:53;;;;;;;6.50;4.10;;;;;;;-3.28;57.85;102606.72;1759068;80;21042;-68
2022/03/17 02:55:20;;;;;;;7.12;4.28;;;;;;;-3.32;57.83;102611.34;1763452;80;21039;-68
2022/03/17 02:57:49;;;;;;;7.35;4.12;;;;;;;-3.32;57.77;102618.36;1765281;80;21807;-67
2022/03/17 03:00:16;;;;;;;7.33;4.12;;;;;;;-3.33;57.72;102611.45;1759225;80;21063;-68
2022/03/17 03:02:45;;;;;;;8.43;4.40;;;;;;;-3.37;57.70;102612.16;1760995;80;20987;-67
2022/03/17 03:05:13;;;;;;;6.90;4.33;;;;;;;-3.38;57.69;102613.11;1756043;80;21022;-69
2022/03/17 03:07:42;;;;;;;6.85;3.85;;;;;;;-3.42;57.72;102612.98;1697605;83;20992;-68
2022/03/17 03:10:09;;;;;;;7.60;4.70;;;;;;;-3.44;57.73;102610.95;1758219;79;21204;-68
2022/03/17 03:12:38;;;;;;;8.95;4.33;;;;;;;-3.43;57.72;102619.61;1757106;80;21070;-68
2022/03/17 03:15:08;;;;;;;7.03;4.42;;;;;;;-3.46;57.67;102614.62;1765038;81;21043;-68
2022/03/17 03:17:37;;;;;;;7.92;4.47;;;;;;;-3.46;57.63;102623.76;1773752;79;21514;-68
2022/03/17 03:20:06;;;;;;;8.43;4.72;;;;;;;-3.48;57.60;102630.42;1761237;80;21045;-69
2022/03/17 03:22:39;;;;;;;9.53;4.67;;;;;;;-3.48;57.57;102632.20;1762386;79;21023;-67
2022/03/17 03:25:09;;;;;;;7.92;3.80;;;;;;;-3.47;57.49;102635.17;1754289;79;21074;-68
2022/03/17 03:27:40;;;;;;;7.53;4.28;;;;;;;-3.48;57.39;102642.17;1761030;79;21019;-68
2022/03/17 03:30:13;;;;;;;8.60;4.70;;;;;;;-3.35;57.11;102636.87;1758847;79;21062;-65
2022/03/17 03:32:44;;;;;;;7.70;4.55;;;;;;;-3.30;56.91;102638.66;1758604;80;21007;-67
2022/03/17 03:38:00;;;;;;;8.65;4.80;;;;;;;-3.27;56.58;102640.21;1758266;80;20988;-68
2022/03/17 03:40:27;;;;;;;7.15;4.12;;;;;;;-3.27;56.44;102638.43;1767312;79;21002;-68
2022/03/17 03:42:56;;;;;;;7.83;4.60;;;;;;;-3.30;56.32;102646.02;1769062;80;21485;-68
2022/03/17 03:45:26;;;;;;;8.33;4.70;;;;;;;-3.33;56.34;102657.17;1761369;80;21642;-67
2022/03/17 03:47:55;;;;;;;8.20;4.58;;;;;;;-3.31;56.30;102660.04;1753730;80;21068;-68
2022/03/17 03:50:22;;;;;;;11.53;5.12;;;;;;;-3.31;56.26;102661.83;1756503;79;21036;-68
2022/03/17 03:52:50;;;;;;;9.88;5.12;;;;;;;-3.49;56.42;102663.17;1763401;80;21008;-66
2022/03/17 03:55:17;;;;;;;11.03;5.85;;;;;;;-3.57;56.53;102675.02;1768906;80;20979;-68
2022/03/17 03:57:46;;;;;;;12.68;5.90;;;;;;;-3.61;56.51;102669.67;1775340;79;21180;-68
2022/03/17 04:02:51;;;;;;;12.75;7.25;;;;;;;-3.63;56.45;102678.08;1757340;80;20987;-68
2022/03/17 04:05:24;;;;;;;14.80;7.60;;;;;;;-3.58;56.27;102681.68;1758588;79;21097;-67
2022/03/17 04:07:48;;;;;;;13.93;7.10;;;;;;;-3.56;56.09;102675.84;1757213;80;21106;-68
2022/03/17 04:10:16;;;;;;;13.60;7.75;;;;;;;-3.55;55.82;102682.28;1764200;80;21630;-68
2022/03/17 04:12:44;;;;;;;16.77;8.48;;;;;;;-3.63;55.92;102684.61;1768626;80;21174;-68
2022/03/17 04:15:11;;;;;;;16.20;8.20;;;;;;;-3.58;55.72;102681.20;1763609;80;21073;-68
2022/03/17 04:17:40;;;;;;;16.32;8.15;;;;;;;-3.58;55.65;102684.29;1759478;80;21011;-68
2022/03/17 04:20:09;;;;;;;18.50;9.35;;;;;;;-3.57;55.61;102691.17;1759827;80;21029;-67
2022/03/17 04:22:38;;;;;;;16.20;9.18;;;;;;;-3.57;55.55;102686.77;1756589;80;21026;-68
2022/03/17 04:25:07;;;;;;;17.07;9.45;;;;;;;-3.52;55.46;102699.97;1761095;80;21115;-67
2022/03/17 04:27:35;;;;;;;16.35;8.53;;;;;;;-3.50;55.35;102688.47;1761410;80;21069;-68
2022/03/17 04:30:05;;;;;;;15.95;8.30;;;;;;;-3.47;55.29;102697.39;1756707;80;21093;-67
2022/03/17 04:32:33;;;;;;;17.40;9.18;;;;;;;-3.46;55.20;102692.99;1726232;82;28547;-67
2022/03/17 04:35:01;;;;;;;17.25;9.50;;;;;;;-3.44;55.16;102698.95;1721817;82;21242;-67
2022/03/17 04:37:28;;;;;;;14.00;7.55;;;;;;;-3.41;55.13;102700.86;1730179;82;21224;-68
2022/03/17 04:39:58;;;;;;;15.32;8.00;;;;;;;-3.34;55.12;102710.39;1757649;80;21195;-68
2022/03/17 04:42:25;;;;;;;13.43;6.70;;;;;;;-3.29;55.06;102710.90;1768404;80;21729;-68
2022/03/17 04:44:53;;;;;;;12.90;7.25;;;;;;;-3.25;54.99;102713.64;1767888;79;21542;-68
2022/03/17 04:47:21;;;;;;;13.45;7.30;;;;;;;-3.21;54.79;102713.77;1761271;80;21022;-67
2022/03/17 04:49:49;;;;;;;11.93;6.55;;;;;;;-3.18;54.59;102722.69;1756790;80;21150;-67
2022/03/17 04:55:05;;;;;;;12.20;6.90;;;;;;;-3.07;54.33;102727.11;1760582;79;21071;-69
2022/03/17 04:57:34;;;;;;;13.13;7.03;;;;;;;-3.01;54.01;102734.98;1758462;80;21593;-67
2022/03/17 05:00:04;;;;;;;12.65;7.50;;;;;;;-2.95;53.79;102734.05;1763742;79;21491;-68
2022/03/17 05:02:32;;;;;;;14.10;8.00;;;;;;;-2.91;53.46;102736.79;1753066;80;21226;-67
2022/03/17 05:04:59;;;;;;;16.02;8.25;;;;;;;-2.86;53.17;102733.38;1756661;80;21031;-68
2022/03/17 05:07:28;;;;;;;11.95;7.70;;;;;;;-2.77;53.02;102736.23;1758256;80;21027;-68
2022/03/17 05:09:55;;;;;;;16.05;8.38;;;;;;;-2.68;52.65;102738.98;1761937;80;21015;-66
2022/03/17 05:12:22;;;;;;;13.68;8.53;;;;;;;-2.61;52.47;102739.34;1765123;79;21108;-69
2022/03/17 05:14:50;;;;;;;15.88;8.68;;;;;;;-2.53;52.33;102741.38;1758916;80;21204;-69
2022/03/17 05:17:17;;;;;;;16.77;9.78;;;;;;;-2.46;52.23;102745.21;1758468;80;21015;-69
2022/03/17 05:19:46;;;;;;;19.32;9.60;;;;;;;-2.37;51.96;102751.02;1766754;80;21055;-70
2022/03/17 05:22:13;;;;;;;15.32;8.98;;;;;;;-2.33;51.83;102745.11;1763138;80;21525;-68
2022/03/17 05:24:41;;;;;;;17.23;9.33;;;;;;;-2.25;51.76;102751.87;1767820;80;21039;-68
2022/03/17 05:27:08;;;;;;;14.28;8.98;;;;;;;-2.18;51.64;102751.75;1766885;80;21244;-68
2022/03/17 05:29:35;;;;;;;15.60;9.30;;;;;;;-2.10;51.10;102757.73;1763606;80;21022;-67
2022/03/17 05:32:04;;;;;;;13.05;7.80;;;;;;;-2.04;50.98;102754.60;1762787;80;21039;-68
2022/03/17 05:34:33;;;;;;;15.20;9.18;;;;;;;-1.98;50.32;102757.57;1755591;80;21093;-68
2022/03/17 05:37:01;;;;;;;14.23;8.80;;;;;;;-1.92;50.14;102765.44;1761074;80;21533;-69
2022/03/17 05:39:29;;;;;;;17.32;9.65;;;;;;;-1.86;49.54;102762.34;1758287;80;21377;-68
2022/03/17 05:41:56;;;;;;;16.42;9.33;;;;;;;-1.79;49.48;102770.06;1763236;79;21035;-69
2022/03/17 05:44:23;;;;;;;17.67;10.50;;;;;;;-1.70;49.20;102765.89;1769381;79;21079;-70
2022/03/17 05:46:50;;;;;;;17.20;10.25;;;;;;;-1.59;49.18;102778.13;1753831;80;21069;-68
2022/03/17 05:49:19;;;;;;;16.73;9.73;;;;;;;-1.51;48.95;102771.81;1766530;79;21527;-67
2022/03/17 05:51:48;;;;;;;16.60;9.55;;;;;;;-1.44;48.57;102769.88;1763769;79;21039;-68
2022/03/17 05:54:15;;;;;;;17.15;8.85;;;;;;;-1.33;48.38;102776.88;1760306;80;21042;-68
2022/03/17 05:56:43;;;;;;;15.70;8.68;;;;;;;-1.29;47.39;102779.59;1753740;80;21039;-68
2022/03/17 05:59:11;;;;;;;13.98;7.97;;;;;;;-1.24;47.48;102775.30;1758362;80;21078;-68
2022/03/17 06:01:38;;;;;;;15.32;8.35;;;;;;;-1.16;46.53;102778.60;1757108;80;21388;-69
2022/03/17 06:04:05;;;;;;;12.80;7.72;;;;;;;-1.10;46.50;102775.48;1763936;80;21173;-69
2022/03/17 06:06:34;;;;;;;11.30;7.37;;;;;;;-1.05;45.63;102772.02;1758468;80;21067;-68
2022/03/17 06:09:03;;;;;;;13.78;8.30;;;;;;;-1.01;45.67;102770.80;1761759;80;21023;-69
2022/03/17 06:11:32;;;;;;;13.78;7.90;;;;;;;-0.98;45.20;102775.80;1756287;80;21026;-68
2022/03/17 06:14:00;;;;;;;15.85;8.65;;;;;;;-0.96;45.21;102782.56;1765400;80;21042;-69
2022/03/17 06:16:26;;;;;;;15.08;8.33;;;;;;;-0.87;45.54;102779.66;1774579;80;21117;-69
2022/03/17 06:18:54;;;;;;;14.10;8.73;;;;;;;-0.72;45.45;102777.09;1759681;79;21078;-68
2022/03/17 06:21:23;;;;;;;15.10;8.60;;;;;;;-0.60;45.04;102783.58;1784865;79;21660;-68
2022/03/17 06:23:50;;;;;;;14.35;8.43;;;;;;;-0.52;44.68;102781.16;1759477;79;21007;-69
2022/03/17 06:26:21;;;;;;;14.15;7.83;;;;;;;-0.46;44.27;102791.14;1760439;80;21124;-68
2022/03/17 06:28:48;;;;;;;13.00;7.40;;;;;;;-0.42;44.21;102784.66;1758700;79;21295;-69
2022/03/17 06:31:15;;;;;;;15.20;8.28;;;;;;;-0.37;43.80;102781.16;1763168;80;21011;-68
2022/03/17 06:33:45;;;;;;;13.55;7.47;;;;;;;-0.30;43.29;102786.72;1758925;80;21022;-69
2022/03/17 06:36:13;;;;;;;14.68;8.45;;;;;;;-0.25;43.13;102783.23;1759110;80;22146;-69
2022/03/17 06:38:40;;;;;;;12.15;6.87;;;;;;;-0.21;43.13;102779.86;1759141;80;21071;-69
2022/03/17 06:41:07;;;;;;;11.85;6.25;;;;;;;-0.20;42.11;102778.89;1758483;80;22345;-68
2022/03/17 06:43:35;;;;;;;10.45;5.80;;;;;;;-0.24;41.79;102776.52;1757807;80;20996;-69
2022/03/17 06:46:02;;;;;;;10.50;6.50;;;;;;;-0.24;42.29;102782.26;1758826;79;21090;-69
2022/03/17 06:48:29;;;;;;;9.43;5.95;;;;;;;-0.19;41.91;102776.14;1765651;80;21169;-69
2022/03/17 06:50:57;;;;;;;10.40;5.85;;;;;;;-0.05;40.87;102786.29;1757777;80;21062;-69
2022/03/17 06:53:24;;;;;;;11.28;6.20;;;;;;;-0.05;40.87;102786.29;1760298;80;21263;-69
2022/03/17 06:55:51;;;;;;;10.82;5.97;;;;;;;-0.04;40.44;102781.38;1753106;80;20988;-69
2022/03/17 06:58:18;;;;;;;9.03;5.25;;;;;;;-0.01;40.60;102788.17;1749674;80;21588;-68
2022/03/17 07:00:46;;;;;;;8.95;5.10;;;;;;;0.04;40.18;102782.05;1763843;79;21578;-70
2022/03/17 07:03:13;;;;;;;9.48;5.30;;;;;;;0.10;40.27;102782.83;1762350;79;21573;-69
2022/03/17 07:05:41;;;;;;;10.48;5.55;;;;;;;0.18;39.85;102787.41;1753748;80;21243;-68
2022/03/17 07:08:08;;;;;;;9.68;6.28;;;;;;;0.21;39.53;102785.34;1762226;79;21103;-69
2022/03/17 07:10:36;;;;;;;11.35;6.47;;;;;;;0.30;39.66;102783.72;1756205;79;21097;-67
2022/03/17 07:13:03;;;;;;;11.48;6.20;;;;;;;0.37;38.85;102790.59;1768685;80;21006;-68
2022/03/17 07:15:31;;;;;;;11.35;6.25;;;;;;;0.38;38.89;102786.98;1757680;80;21008;-71
2022/03/17 07:17:58;;;;;;;11.80;6.10;;;;;;;0.44;38.76;102784.64;1748365;80;21252;-69
2022/03/17 07:20:26;;;;;;;8.15;4.97;;;;;;;0.53;38.32;102785.64;1762988;80;21079;-68
2022/03/17 07:22:54;;;;;;;8.90;5.40;;;;;;;0.60;36.52;102792.50;1764391;80;21070;-68
2022/03/17 07:25:23;;;;;;;8.68;4.80;;;;;;;0.52;35.96;102790.53;1758253;79;21050;-69
2022/03/17 07:27:51;;;;;;;9.15;4.53;;;;;;;0.54;35.88;102785.16;1759009;80;22300;-68
2022/03/17 07:30:22;;;;;;;7.00;4.10;;;;;;;0.52;35.87;102781.81;1760943;80;21225;-70
2022/03/17 07:32:55;;;;;;;7.33;4.15;;;;;;;0.49;35.53;102786.86;1759470;80;21082;-69
2022/03/17 07:35:23;;;;;;;8.78;4.47;;;;;;;0.55;35.57;102788.95;1760628;80;21058;-68
2022/03/17 07:37:50;;;;;;;8.15;3.95;;;;;;;0.62;35.86;102788.74;1755517;80;21540;-69
2022/03/17 07:40:17;;;;;;;7.85;4.37;;;;;;;0.71;35.85;102791.05;1760070;80;21031;-69
2022/03/17 07:42:44;;;;;;;7.90;5.00;;;;;;;0.69;35.67;102785.94;1765160;79;21237;-70
2022/03/17 07:45:27;;;;;;;10.20;4.70;;;;;;;0.69;36.29;102790.34;1762747;79;21994;-69
2022/03/17 07:48:12;;;;;;;7.60;4.50;;;;;;;0.76;36.67;102788.86;1723854;80;21105;-69
2022/03/17 07:50:42;;;;;;;7.17;4.33;;;;;;;0.89;36.97;102792.05;1738796;80;21108;-68
2022/03/17 07:53:10;;;;;;;8.13;4.58;;;;;;;1.02;36.56;102794.86;1738086;81;21031;-68
2022/03/17 07:55:37;;;;;;;8.45;3.80;;;;;;;1.03;35.60;102796.06;1760371;79;21281;-68
2022/03/17 07:58:04;;;;;;;6.12;3.65;;;;;;;1.02;35.20;102794.41;1764277;80;21133;-68
2022/03/17 08:00:32;;;;;;;9.38;4.15;;;;;;;0.97;34.75;102791.34;1764660;80;21024;-69
2022/03/17 08:03:01;;;;;;;6.95;3.92;;;;;;;0.93;35.32;102797.38;1777535;80;21103;-69
2022/03/17 08:05:29;;;;;;;6.33;4.20;;;;;;;1.02;35.53;102793.09;1769949;79;21028;-68
2022/03/17 08:07:56;;;;;;;9.00;4.78;;;;;;;1.17;35.79;102794.31;1757875;79;21239;-70
2022/03/17 08:10:24;;;;;;;8.95;4.83;;;;;;;1.33;35.16;102793.74;1754514;80;20991;-69
2022/03/17 08:12:52;;;;;;;8.83;4.50;;;;;;;1.42;34.66;102796.03;1762957;80;21465;-69
2022/03/17 08:15:21;;;;;;;7.60;4.67;;;;;;;1.40;34.89;102788.25;1765412;80;21502;-68
2022/03/17 08:17:48;;;;;;;9.33;5.08;;;;;;;1.38;35.04;102789.36;1757838;80;21050;-70
2022/03/17 08:20:16;;;;;;;7.47;4.25;;;;;;;1.43;35.59;102792.41;1758540;80;21340;-69
2022/03/17 08:22:45;;;;;;;6.60;3.27;;;;;;;1.46;35.28;102784.23;1762176;80;21518;-69
2022/03/17 08:25:13;;;;;;;6.83;3.92;;;;;;;1.44;34.25;102791.44;1772380;79;20993;-69
2022/03/17 08:27:42;;;;;;;6.30;3.45;;;;;;;1.39;34.47;102782.66;1759290;79;22264;-68
2022/03/17 08:30:12;;;;;;;5.97;3.52;;;;;;;1.45;34.82;102789.63;1761106;80;20999;-69
2022/03/17 08:32:40;;;;;;;7.70;3.92;;;;;;;1.58;34.98;102787.52;1761933;80;21259;-68
2022/03/17 08:35:11;;;;;;;6.95;3.62;;;;;;;1.67;34.76;102783.20;1754659;80;21056;-69
2022/03/17 08:37:42;;;;;;;8.65;4.42;;;;;;;1.72;35.13;102785.76;1750772;79;21089;-69
2022/03/17 08:40:10;;;;;;;7.17;4.35;;;;;;;1.86;34.64;102787.09;1747111;81;21042;-70
2022/03/17 08:42:40;;;;;;;10.85;5.55;;;;;;;1.94;34.46;102787.22;1742394;81;21166;-69
2022/03/17 08:50:43;;;;;;;8.10;4.80;;;;;;;1.99;35.21;102787.59;1764531;80;21632;-71
2022/03/17 08:53:11;;;;;;;7.70;5.03;;;;;;;2.05;34.75;102785.70;1768726;80;21043;-68
2022/03/17 08:55:39;;;;;;;7.45;4.50;;;;;;;2.19;34.48;102779.59;1775576;80;21050;-68
2022/03/17 08:58:06;;;;;;;8.00;4.87;;;;;;;2.37;34.26;102773.89;1762311;80;21252;-68
2022/03/17 09:00:35;;;;;;;8.10;4.20;;;;;;;2.57;33.73;102775.41;1763007;79;21004;-70
2022/03/17 09:03:05;;;;;;;8.18;4.60;;;;;;;2.60;32.73;102778.25;1728763;80;33406;-69
2022/03/17 09:05:35;;;;;;;8.58;4.12;;;;;;;2.62;32.91;102782.05;1754334;80;21530;-68
2022/03/17 09:08:05;;;;;;;9.03;3.83;;;;;;;2.70;32.76;102768.45;1755088;80;21114;-67
2022/03/17 09:10:34;;;;;;;7.53;3.90;;;;;;;2.77;32.08;102780.56;1756415;80;21286;-69
2022/03/17 09:13:12;;;;;;;6.83;4.10;;;;;;;2.70;32.17;102764.96;1760695;80;21121;-67
2022/03/17 09:15:31;;;;;;;7.05;3.83;;;;;;;2.65;32.64;102767.23;1755486;80;21015;-69
2022/03/17 09:18:00;;;;;;;7.25;3.80;;;;;;;2.55;32.55;102772.09;1758653;80;21125;-68
2022/03/17 09:20:27;;;;;;;9.08;5.03;;;;;;;2.45;32.45;102772.64;1758679;80;21442;-68
2022/03/17 09:22:56;;;;;;;8.38;4.50;;;;;;;2.41;33.03;102763.38;1758062;80;21892;-69
2022/03/17 09:25:28;;;;;;;8.88;5.33;;;;;;;2.48;33.40;102766.25;1757488;80;21055;-68
2022/03/17 09:27:56;;;;;;;9.03;5.40;;;;;;;2.59;33.31;102771.30;1755845;80;21069;-70
2022/03/17 09:30:23;;;;;;;10.35;5.35;;;;;;;2.70;32.93;102771.55;1756755;79;21262;-70
2022/03/17 09:32:54;;;;;;;9.15;5.03;;;;;;;2.76;32.51;102770.96;1771083;80;21124;-70
2022/03/17 09:35:22;;;;;;;8.25;5.08;;;;;;;2.75;32.34;102766.67;1756553;80;21471;-69
2022/03/17 09:37:50;;;;;;;9.35;5.33;;;;;;;2.75;32.31;102770.62;1755107;80;21031;-69
2022/03/17 09:40:18;;;;;;;9.10;5.08;;;;;;;2.69;32.11;102780.46;1763008;80;21460;-69
2022/03/17 09:42:45;;;;;;;6.92;4.40;;;;;;;2.61;32.59;102783.03;1776737;80;21593;-69
2022/03/17 09:45:12;;;;;;;13.48;4.67;;;;;;;2.65;32.79;102777.80;1776936;80;21141;-69
2022/03/17 09:47:42;;;;;;;6.85;4.00;;;;;;;2.54;32.67;102777.53;1769869;80;21239;-68
2022/03/17 09:50:11;;;;;;;7.45;4.53;;;;;;;2.39;32.65;102777.68;1765605;80;21134;-69
2022/03/17 09:52:39;;;;;;;6.97;4.20;;;;;;;2.38;32.79;102777.35;1761006;80;21125;-68
2022/03/17 09:55:10;;;;;;;8.75;5.03;;;;;;;2.54;33.09;102777.03;1756032;80;21094;-69
2022/03/17 09:57:41;;;;;;;6.00;3.98;;;;;;;2.73;32.53;102777.39;1754694;80;21577;-69
2022/03/17 10:00:12;;;;;;;7.53;4.60;;;;;;;2.84;32.77;102781.61;1774888;80;21122;-69
2022/03/17 10:02:40;;;;;;;;;;;;;;;2.97;32.35;102774.63;1756968;80;21011;-68
2022/03/17 10:05:11;;;;;;;7.70;4.90;;;;;;;2.93;31.82;102772.79;1746138;80;20143;-69
2022/03/17 10:07:40;;;;;;;8.90;5.12;;;;;;;2.90;32.12;102781.01;1724306;82;21050;-67
2022/03/17 10:10:11;;;;;;;6.20;3.90;;;;;;;2.97;32.34;102781.23;1732252;80;21142;-69
2022/03/17 10:12:40;;;;;;;7.05;4.15;;;;;;;2.92;32.05;102782.98;1759330;80;21202;-68
2022/03/17 10:15:11;;;;;;;8.40;4.75;;;;;;;2.70;31.63;102786.07;1756973;80;21093;-69
2022/03/17 10:17:41;;;;;;;9.58;5.40;;;;;;;2.56;32.41;102790.88;1740008;80;21051;-69
2022/03/17 10:20:16;;;;;;;7.25;4.20;;;;;;;2.61;32.28;102780.40;1758834;80;21026;-68
2022/03/17 10:22:47;;;;;;;8.40;4.53;;;;;;;2.72;32.30;102764.33;1764316;80;21015;-68
2022/03/17 10:25:20;;;;;;;5.22;3.22;;;;;;;2.85;31.78;102775.84;1757766;80;21115;-67
2022/03/17 10:27:54;;;;;;;7.80;4.30;;;;;;;2.84;32.08;102778.97;1758479;80;21097;-69
2022/03/17 10:30:35;;;;;;;7.72;4.10;;;;;;;2.87;32.03;102778.67;1767040;80;21022;-69
2022/03/17 10:33:14;;;;;;;6.90;4.03;;;;;;;2.77;32.05;102777.92;1775726;80;21038;-69
2022/03/17 10:35:45;;;;;;;7.50;3.75;;;;;;;2.80;32.09;102773.16;1775641;80;21065;-68
2022/03/17 10:38:16;;;;;;;6.83;4.00;;;;;;;2.95;32.68;102768.66;1775882;80;21156;-68
2022/03/17 10:40:47;;;;;;;6.20;3.35;;;;;;;3.15;32.49;102770.64;1776123;80;21046;-68
2022/03/17 10:43:20;;;;;;;8.35;4.22;;;;;;;3.36;31.85;102763.22;1772882;80;21463;-68
2022/03/17 10:45:47;;;;;;;7.03;4.00;;;;;;;3.35;31.01;102773.42;1765644;80;21439;-68
2022/03/17 10:48:15;;;;;;;7.55;4.47;;;;;;;3.16;30.55;102774.92;1758425;80;21125;-69
2022/03/17 10:50:43;;;;;;;6.83;4.03;;;;;;;3.06;31.21;102763.16;1754834;80;21900;-68
2022/03/17 10:53:12;;;;;;;7.45;4.28;;;;;;;3.13;31.43;102775.27;1760969;80;21015;-68
2022/03/17 10:55:39;;;;;;;7.35;4.00;;;;;;;3.24;31.14;102767.08;1776442;80;21038;-69
2022/03/17 10:58:18;;;;;;;7.40;4.37;;;;;;;3.17;31.64;102763.41;1776609;80;21573;-69
2022/03/17 11:00:52;;;;;;;7.87;4.42;;;;;;;3.22;31.96;102774.31;1755583;80;21023;-70
2022/03/17 11:03:20;;;;;;;6.15;3.65;;;;;;;3.24;31.39;102764.44;1755041;80;21722;-69
2022/03/17 11:05:51;;;;;;;7.40;3.58;;;;;;;3.28;31.23;102763.14;1755741;80;21279;-67
2022/03/17 11:08:20;;;;;;;6.22;3.50;;;;;;;3.28;31.21;102759.18;1759704;80;21554;-68
2022/03/17 11:10:49;;;;;;;5.17;3.17;;;;;;;3.36;31.74;102753.97;1757823;80;21097;-68
2022/03/17 11:13:19;;;;;;;5.75;3.30;;;;;;;3.60;31.59;102756.42;1757455;80;21042;-69
2022/03/17 11:16:00;;;;;;;6.00;3.83;;;;;;;3.82;30.84;102760.31;1755575;80;21145;-69
2022/03/17 11:18:36;;;;;;;5.50;3.10;;;;;;;3.82;29.96;102751.92;1758450;80;21129;-68
2022/03/17 11:21:16;;;;;;;5.35;3.40;;;;;;;3.69;30.42;102760.77;1762268;80;21090;-67
2022/03/17 11:23:59;;;;;;;7.05;3.15;;;;;;;3.67;30.09;102756.13;1759492;80;21082;-71
2022/03/17 11:26:35;;;;;;;6.67;3.30;;;;;;;3.64;29.71;102745.37;1754563;80;21053;-72
2022/03/17 11:29:08;;;;;;;6.03;3.50;;;;;;;3.66;30.57;102754.48;1759498;80;21608;-69
2022/03/17 11:32:00;;;;;;;5.65;3.50;;;;;;;3.69;30.89;102751.52;1759386;80;21637;-73
2022/03/17 11:34:48;;;;;;;5.17;3.10;;;;;;;3.85;30.94;102748.96;1762828;80;26884;-68
2022/03/17 11:37:26;;;;;;;7.85;3.77;;;;;;;4.02;31.02;102753.00;1760612;80;20997;-69
2022/03/17 11:40:09;;;;;;;6.67;3.95;;;;;;;4.19;30.66;102750.73;1756404;80;20992;-68
2022/03/17 11:42:57;;;;;;;6.55;3.83;;;;;;;4.20;30.00;102755.85;1763489;80;21248;-68
2022/03/17 11:45:30;;;;;;;7.53;4.53;;;;;;;4.14;29.60;102755.66;1762801;80;21022;-66
2022/03/17 11:48:00;;;;;;;5.25;3.15;;;;;;;3.94;29.75;102759.88;1761583;80;21050;-68
2022/03/17 11:50:42;;;;;;;6.33;3.77;;;;;;;3.72;30.00;102760.46;1765536;80;21090;-67
2022/03/17 11:53:44;;;;;;;6.95;3.62;;;;;;;3.59;30.46;102753.45;1760409;80;21034;-67
2022/03/17 11:56:15;;;;;;;6.55;3.27;;;;;;;3.62;31.17;102753.11;1761294;79;21102;-68